Time,TemperatureF,DewpointF,PressureIn,WindDirection,WindDirectionDegrees,WindSpeedMPH,WindSpeedGustMPH,Humidity,HourlyPrecipIn,Conditions,Clouds,dailyrainin,SoftwareType,DateUTC
2013-11-06 00:00:00,33.9,0.8,30.13,SW,233,25.0,25.0,24,0.00,,,0.00,Wunderground v.1.15,2013-11-06 07:00:00,
2013-11-06 00:10:00,34.6,0.5,30.14,SW,231,17.0,17.0,23,0.00,,,0.00,Wunderground v.1.15,2013-11-06 07:10:00,
2013-11-06 00:20:00,33.6,2.3,30.14,SSW,208,9.0,9.0,26,0.00,,,0.00,Wunderground v.1.15,2013-11-06 07:20:00,
2013-11-06 00:26:00,33.7,2.4,30.14,SW,228,9.0,21.0,26,0.00,,,0.00,Wunderground v.1.15,2013-11-06 07:26:00,
2013-11-06 00:35:00,34.1,2.7,30.14,South,191,13.0,14.0,26,0.00,,,0.00,Wunderground v.1.15,2013-11-06 07:35:00,
2013-11-06 00:40:00,34.7,1.5,30.15,South,191,14.0,14.0,24,0.00,,,0.00,Wunderground v.1.15,2013-11-06 07:40:00,
2013-11-06 00:50:00,34.4,2.1,30.15,SSW,211,12.0,12.0,25,0.00,,,0.00,Wunderground v.1.15,2013-11-06 07:50:00,
2013-11-06 01:00:00,33.0,2.6,30.15,SSW,200,9.0,9.0,27,0.00,,,0.00,Wunderground v.1.15,2013-11-06 08:00:00,
2013-11-06 01:10:00,33.8,4.1,30.15,SE,145,6.0,6.0,28,0.00,,,0.00,Wunderground v.1.15,2013-11-06 08:10:00,
2013-11-06 01:20:00,31.4,3.5,30.15,ENE,66,3.0,6.0,30,0.00,,,0.00,Wunderground v.1.15,2013-11-06 08:20:00,
2013-11-06 01:25:00,30.9,3.0,30.15,NE,56,5.0,7.0,30,0.00,,,0.00,Wunderground v.1.15,2013-11-06 08:25:00,
2013-11-06 01:35:00,29.6,3.3,30.15,NE,54,6.0,11.0,32,0.00,,,0.00,Wunderground v.1.15,2013-11-06 08:35:00,
2013-11-06 01:40:00,29.4,3.8,30.16,NE,42,7.0,7.0,33,0.00,,,0.00,Wunderground v.1.15,2013-11-06 08:40:00,
2013-11-06 01:50:00,30.2,3.1,30.16,NE,51,6.0,6.0,31,0.00,,,0.00,Wunderground v.1.15,2013-11-06 08:50:00,
2013-11-06 01:55:00,30.2,4.5,30.16,SW,214,6.0,6.0,33,0.00,,,0.00,Wunderground v.1.15,2013-11-06 08:55:00,
2013-11-06 02:00:00,31.3,4.1,30.15,SW,214,4.0,4.0,31,0.00,,,0.00,Wunderground v.1.15,2013-11-06 09:00:00,
2013-11-06 02:10:00,32.7,4.6,30.16,NNE,23,4.0,4.0,30,0.00,,,0.00,Wunderground v.1.15,2013-11-06 09:10:00,
2013-11-06 02:15:00,32.4,5.1,30.16,NNE,23,4.0,4.0,31,0.00,,,0.00,Wunderground v.1.15,2013-11-06 09:15:00,
2013-11-06 02:25:00,32.5,6.5,30.15,SSW,204,4.0,6.0,33,0.00,,,0.00,Wunderground v.1.15,2013-11-06 09:25:00,
2013-11-06 02:30:00,34.5,7.6,30.14,SW,218,7.0,22.0,32,0.00,,,0.00,Wunderground v.1.15,2013-11-06 09:30:00,
2013-11-06 02:35:00,33.3,6.6,30.15,SE,132,10.0,22.0,32,0.00,,,0.00,Wunderground v.1.15,2013-11-06 09:35:00,
2013-11-06 02:40:00,32.4,5.8,30.15,SSE,161,5.0,5.0,32,0.00,,,0.00,Wunderground v.1.15,2013-11-06 09:40:00,
2013-11-06 02:50:00,32.7,6.0,30.15,SSE,153,5.0,5.0,32,0.00,,,0.00,Wunderground v.1.15,2013-11-06 09:50:00,
2013-11-06 02:55:00,31.5,5.7,30.15,ENE,63,6.0,6.0,33,0.00,,,0.00,Wunderground v.1.15,2013-11-06 09:55:00,
2013-11-06 03:00:00,30.8,5.7,30.15,SW,219,5.0,5.0,34,0.00,,,0.00,Wunderground v.1.15,2013-11-06 10:00:00,
2013-11-06 03:10:00,29.7,7.2,30.15,ENE,77,4.0,8.0,38,0.00,,,0.00,Wunderground v.1.15,2013-11-06 10:10:00,
2013-11-06 03:15:00,30.5,5.4,30.15,ENE,66,6.0,8.0,34,0.00,,,0.00,Wunderground v.1.15,2013-11-06 10:15:00,
2013-11-06 03:25:00,30.7,4.9,30.16,ENE,76,7.0,12.0,33,0.00,,,0.00,Wunderground v.1.15,2013-11-06 10:25:00,
2013-11-06 03:30:00,30.2,5.8,30.17,SSW,211,9.0,9.0,35,0.00,,,0.00,Wunderground v.1.15,2013-11-06 10:30:00,
2013-11-06 03:35:00,28.9,5.8,30.17,SSW,208,7.0,19.0,37,0.00,,,0.00,Wunderground v.1.15,2013-11-06 10:35:00,
2013-11-06 03:40:00,34.0,8.5,30.15,SSW,198,12.0,13.0,34,0.00,,,0.00,Wunderground v.1.15,2013-11-06 10:40:00,
2013-11-06 03:50:00,33.5,6.7,30.16,NNW,345,8.0,8.0,32,0.00,,,0.00,Wunderground v.1.15,2013-11-06 10:50:00,
2013-11-06 03:55:00,32.7,6.7,30.16,SE,143,5.0,8.0,33,0.00,,,0.00,Wunderground v.1.15,2013-11-06 10:55:00,
2013-11-06 04:00:00,32.9,7.6,30.16,South,187,4.0,4.0,34,0.00,,,0.00,Wunderground v.1.15,2013-11-06 11:00:00,
2013-11-06 04:10:00,33.5,9.4,30.16,SSW,204,11.0,15.0,36,0.00,,,0.00,Wunderground v.1.15,2013-11-06 11:10:00,
2013-11-06 04:15:00,34.8,9.9,30.16,SW,214,15.0,19.0,35,0.00,,,0.00,Wunderground v.1.15,2013-11-06 11:15:00,
2013-11-06 04:25:00,35.7,10.0,30.16,SW,222,16.0,26.0,34,0.00,,,0.00,Wunderground v.1.15,2013-11-06 11:25:00,
2013-11-06 04:30:00,36.0,10.3,30.15,SW,228,17.0,22.0,34,0.00,,,0.00,Wunderground v.1.15,2013-11-06 11:30:00,
2013-11-06 04:40:00,36.6,10.2,30.14,South,190,24.0,32.0,33,0.00,,,0.00,Wunderground v.1.15,2013-11-06 11:40:00,
2013-11-06 04:50:00,37.2,10.0,30.15,SSW,201,20.0,22.0,32,0.00,,,0.00,Wunderground v.1.15,2013-11-06 11:50:00,
2013-11-06 04:55:00,37.3,10.1,30.15,South,190,18.0,22.0,32,0.00,,,0.00,Wunderground v.1.15,2013-11-06 11:55:00,
2013-11-06 05:00:00,37.4,10.2,30.15,South,183,18.0,18.0,32,0.00,,,0.00,Wunderground v.1.15,2013-11-06 12:00:00,
2013-11-06 05:10:00,37.1,9.9,30.13,SSW,197,18.0,28.0,32,0.00,,,0.00,Wunderground v.1.15,2013-11-06 12:10:00,
2013-11-06 05:15:00,36.8,10.3,30.13,South,186,26.0,49.0,33,0.00,,,0.00,Wunderground v.1.15,2013-11-06 12:15:00,
2013-11-06 05:25:00,36.8,9.7,30.10,SSW,197,43.0,53.0,32,0.00,,,0.00,Wunderground v.1.15,2013-11-06 12:25:00,
2013-11-06 05:30:00,36.2,9.1,30.08,SSW,208,46.0,61.0,32,0.00,,,0.00,Wunderground v.1.15,2013-11-06 12:30:00,
2013-11-06 05:40:00,35.7,8.7,30.13,SW,224,50.0,50.0,32,0.00,,,0.00,Wunderground v.1.15,2013-11-06 12:40:00,
2013-11-06 05:50:00,35.2,8.9,30.16,SW,217,35.0,35.0,33,0.00,,,0.00,Wunderground v.1.15,2013-11-06 12:50:00,
2013-11-06 05:55:00,35.3,9.0,30.16,SW,225,38.0,38.0,33,0.00,,,0.00,Wunderground v.1.15,2013-11-06 12:55:00,
2013-11-06 06:00:00,35.2,8.9,30.17,SSW,195,35.0,35.0,33,0.00,,,0.00,Wunderground v.1.15,2013-11-06 13:00:00,
2013-11-06 06:10:00,35.5,9.2,30.18,SSW,195,22.0,22.0,33,0.00,,,0.00,Wunderground v.1.15,2013-11-06 13:10:00,
2013-11-06 06:15:00,35.7,9.4,30.18,SW,233,18.0,22.0,33,0.00,,,0.00,Wunderground v.1.15,2013-11-06 13:15:00,
2013-11-06 06:25:00,35.1,9.5,30.18,WSW,239,15.0,21.0,34,0.00,,,0.00,Wunderground v.1.15,2013-11-06 13:25:00,
2013-11-06 06:30:00,34.9,9.3,30.17,SW,217,17.0,17.0,34,0.00,,,0.00,Wunderground v.1.15,2013-11-06 13:30:00,
2013-11-06 06:40:00,34.7,9.8,30.17,SSW,200,18.0,21.0,35,0.00,,,0.00,Wunderground v.1.15,2013-11-06 13:40:00,
2013-11-06 06:50:00,36.9,9.7,30.19,SW,219,20.0,20.0,32,0.00,,,0.00,Wunderground v.1.15,2013-11-06 13:50:00,
2013-11-06 06:55:00,36.1,9.7,30.19,SW,224,15.0,20.0,33,0.00,,,0.00,Wunderground v.1.15,2013-11-06 13:55:00,
2013-11-06 07:00:00,35.6,9.9,30.19,South,185,12.0,12.0,34,0.00,,,0.00,Wunderground v.1.15,2013-11-06 14:00:00,
2013-11-06 07:10:00,36.5,10.7,30.19,SSW,209,16.0,16.0,34,0.00,,,0.00,Wunderground v.1.15,2013-11-06 14:10:00,
2013-11-06 07:20:00,36.7,10.3,30.19,SSW,201,14.0,14.0,33,0.00,,,0.00,Wunderground v.1.15,2013-11-06 14:20:00,
2013-11-06 07:30:00,36.7,10.9,30.19,SSW,197,6.0,13.0,34,0.00,,,0.00,Wunderground v.1.15,2013-11-06 14:30:00,
2013-11-06 07:35:00,37.5,11.0,30.19,SSW,201,10.0,21.0,33,0.00,,,0.00,Wunderground v.1.15,2013-11-06 14:35:00,
2013-11-06 07:40:00,38.3,11.0,30.20,SW,229,16.0,16.0,32,0.00,,,0.00,Wunderground v.1.15,2013-11-06 14:40:00,
2013-11-06 07:50:00,37.1,11.3,30.20,South,189,10.0,10.0,34,0.00,,,0.00,Wunderground v.1.15,2013-11-06 14:50:00,
2013-11-06 07:55:00,37.3,11.5,30.20,SW,218,9.0,13.0,34,0.00,,,0.00,Wunderground v.1.15,2013-11-06 14:55:00,
2013-11-06 08:00:00,37.4,10.9,30.20,SW,231,12.0,32.0,33,0.00,,,0.00,Wunderground v.1.15,2013-11-06 15:00:00,
2013-11-06 08:10:00,37.4,11.5,30.21,WSW,237,19.0,24.0,34,0.00,,,0.00,Wunderground v.1.15,2013-11-06 15:10:00,
2013-11-06 08:20:00,37.3,12.7,30.21,SW,225,21.0,22.0,36,0.00,,,0.00,Wunderground v.1.15,2013-11-06 15:20:00,
2013-11-06 08:25:00,37.4,12.2,30.22,SW,221,20.0,22.0,35,0.00,,,0.00,Wunderground v.1.15,2013-11-06 15:25:00,
2013-11-06 08:30:00,37.5,12.9,30.21,SW,222,18.0,25.0,36,0.00,,,0.00,Wunderground v.1.15,2013-11-06 15:30:00,
2013-11-06 08:40:00,37.8,13.2,30.20,SSW,202,18.0,22.0,36,0.00,,,0.00,Wunderground v.1.15,2013-11-06 15:40:00,
2013-11-06 08:50:00,37.8,13.8,30.21,WSW,245,22.0,25.0,37,0.00,,,0.00,Wunderground v.1.15,2013-11-06 15:50:00,
2013-11-06 08:55:00,37.8,13.8,30.21,SW,225,24.0,25.0,37,0.00,,,0.00,Wunderground v.1.15,2013-11-06 15:55:00,
2013-11-06 09:00:00,37.9,13.9,30.21,WSW,248,21.0,21.0,37,0.00,,,0.00,Wunderground v.1.15,2013-11-06 16:00:00,
2013-11-06 09:10:00,38.7,14.6,30.21,WSW,240,22.0,22.0,37,0.00,,,0.00,Wunderground v.1.15,2013-11-06 16:10:00,
2013-11-06 09:20:00,39.5,14.1,30.22,SSW,208,18.0,18.0,35,0.00,,,0.00,Wunderground v.1.15,2013-11-06 16:20:00,
2013-11-06 09:25:00,39.9,14.4,30.20,SW,233,15.0,23.0,35,0.00,,,0.00,Wunderground v.1.15,2013-11-06 16:25:00,
2013-11-06 09:30:00,40.3,14.8,30.20,SSW,203,17.0,17.0,35,0.00,,,0.00,Wunderground v.1.15,2013-11-06 16:30:00,
2013-11-06 09:35:00,40.5,15.0,30.20,South,188,19.0,19.0,35,0.00,,,0.00,Wunderground v.1.15,2013-11-06 16:35:00,
2013-11-06 09:41:00,40.9,15.3,30.21,SW,236,14.0,14.0,35,0.00,,,0.00,Wunderground v.1.15,2013-11-06 16:41:00,
2013-11-06 09:50:00,42.6,14.8,30.19,SW,221,15.0,37.0,32,0.00,,,0.00,Wunderground v.1.15,2013-11-06 16:50:00,
2013-11-06 09:55:00,42.8,14.9,30.17,WSW,252,30.0,43.0,32,0.00,,,0.00,Wunderground v.1.15,2013-11-06 16:55:00,
2013-11-06 10:00:00,42.9,15.0,30.18,SW,233,40.0,44.0,32,0.00,,,0.00,Wunderground v.1.15,2013-11-06 17:00:00,
2013-11-06 10:05:00,43.2,15.3,30.17,SW,219,37.0,44.0,32,0.00,,,0.00,Wunderground v.1.15,2013-11-06 17:05:00,
2013-11-06 10:11:00,43.4,14.7,30.19,WSW,242,33.0,39.0,31,0.00,,,0.00,Wunderground v.1.15,2013-11-06 17:11:00,
2013-11-06 10:16:00,43.6,14.9,30.19,WSW,238,30.0,39.0,31,0.00,,,0.00,Wunderground v.1.15,2013-11-06 17:16:00,
2013-11-06 10:25:00,43.7,15.0,30.19,SW,228,31.0,31.0,31,0.00,,,0.00,Wunderground v.1.15,2013-11-06 17:25:00,
2013-11-06 10:30:00,43.9,14.4,30.18,WSW,246,31.0,40.0,30,0.00,,,0.00,Wunderground v.1.15,2013-11-06 17:30:00,
2013-11-06 10:35:00,44.0,14.5,30.19,WSW,248,31.0,40.0,30,0.00,,,0.00,Wunderground v.1.15,2013-11-06 17:35:00,
2013-11-06 10:40:00,43.8,14.3,30.19,West,259,26.0,31.0,30,0.00,,,0.00,Wunderground v.1.15,2013-11-06 17:40:00,
2013-11-06 10:50:00,44.8,15.2,30.19,WSW,238,24.0,29.0,30,0.00,,,0.00,Wunderground v.1.15,2013-11-06 17:50:00,
2013-11-06 10:55:00,44.7,14.3,30.20,SW,235,24.0,29.0,29,0.00,,,0.00,Wunderground v.1.15,2013-11-06 17:55:00,
2013-11-06 11:00:00,44.8,15.2,30.19,SW,236,25.0,30.0,30,0.00,,,0.00,Wunderground v.1.15,2013-11-06 18:00:00,
2013-11-06 11:05:00,44.7,13.5,30.19,SW,224,31.0,32.0,28,0.00,,,0.00,Wunderground v.1.15,2013-11-06 18:05:00,
2013-11-06 11:10:00,44.7,15.1,30.18,SW,222,30.0,39.0,30,0.00,,,0.00,Wunderground v.1.15,2013-11-06 18:10:00,
2013-11-06 11:20:00,44.6,13.5,30.19,SW,232,36.0,36.0,28,0.00,,,0.00,Wunderground v.1.15,2013-11-06 18:20:00,
2013-11-06 11:25:00,44.4,12.5,30.18,SW,226,33.0,39.0,27,0.00,,,0.00,Wunderground v.1.15,2013-11-06 18:25:00,
2013-11-06 11:30:00,44.4,12.5,30.14,SW,229,40.0,40.0,27,0.00,,,0.00,Wunderground v.1.15,2013-11-06 18:30:00,
2013-11-06 11:40:00,44.1,12.2,30.16,SSW,212,38.0,38.0,27,0.00,,,0.00,Wunderground v.1.15,2013-11-06 18:40:00,
2013-11-06 11:50:00,44.3,12.4,30.17,SW,233,44.0,51.0,27,0.00,,,0.00,Wunderground v.1.15,2013-11-06 18:50:00,
2013-11-06 11:55:00,44.2,12.3,30.17,SSE,164,43.0,51.0,27,0.00,,,0.00,Wunderground v.1.15,2013-11-06 18:55:00,
2013-11-06 12:00:00,44.0,12.9,30.17,SW,228,43.0,55.0,28,0.00,,,0.00,Wunderground v.1.15,2013-11-06 19:00:00,
2013-11-06 12:10:00,44.2,13.1,30.18,SSW,211,37.0,37.0,28,0.00,,,0.00,Wunderground v.1.15,2013-11-06 19:10:00,
2013-11-06 12:20:00,44.1,13.0,30.17,SSW,207,35.0,35.0,28,0.00,,,0.00,Wunderground v.1.15,2013-11-06 19:20:00,
2013-11-06 12:25:00,44.3,13.2,30.17,SW,221,36.0,36.0,28,0.00,,,0.00,Wunderground v.1.15,2013-11-06 19:25:00,
2013-11-06 12:30:00,44.8,14.4,30.18,SW,226,35.0,35.0,29,0.00,,,0.00,Wunderground v.1.15,2013-11-06 19:30:00,
2013-11-06 12:35:00,44.2,13.9,30.18,WSW,239,35.0,35.0,29,0.00,,,0.00,Wunderground v.1.15,2013-11-06 19:35:00,
2013-11-06 12:41:00,45.1,14.7,30.17,SW,226,33.0,33.0,29,0.00,,,0.00,Wunderground v.1.15,2013-11-06 19:41:00,
2013-11-06 12:50:00,45.4,15.7,30.18,SW,231,30.0,30.0,30,0.00,,,0.00,Wunderground v.1.15,2013-11-06 19:50:00,
2013-11-06 12:55:00,45.0,15.4,30.18,SW,215,28.0,35.0,30,0.00,,,0.00,Wunderground v.1.15,2013-11-06 19:55:00,
2013-11-06 13:00:00,44.9,15.3,30.18,WSW,248,29.0,40.0,30,0.00,,,0.00,Wunderground v.1.15,2013-11-06 20:00:00,
2013-11-06 13:05:00,44.4,14.9,30.16,SW,235,32.0,40.0,30,0.00,,,0.00,Wunderground v.1.15,2013-11-06 20:05:00,
2013-11-06 13:10:00,44.6,15.8,30.18,SSW,211,28.0,28.0,31,0.00,,,0.00,Wunderground v.1.15,2013-11-06 20:10:00,
2013-11-06 13:20:00,44.5,16.4,30.17,WSW,238,26.0,26.0,32,0.00,,,0.00,Wunderground v.1.15,2013-11-06 20:20:00,
2013-11-06 13:25:00,44.4,15.6,30.18,WSW,255,24.0,26.0,31,0.00,,,0.00,Wunderground v.1.15,2013-11-06 20:25:00,
2013-11-06 13:30:00,44.2,16.2,30.18,SW,235,22.0,22.0,32,0.00,,,0.00,Wunderground v.1.15,2013-11-06 20:30:00,
2013-11-06 13:35:00,45.7,16.0,30.18,South,187,22.0,22.0,30,0.00,,,0.00,Wunderground v.1.15,2013-11-06 20:35:00,
2013-11-06 13:40:00,47.1,15.6,30.19,SSW,201,15.0,20.0,28,0.00,,,0.00,Wunderground v.1.15,2013-11-06 20:40:00,
2013-11-06 13:50:00,46.7,14.4,30.20,SSW,208,28.0,28.0,27,0.00,,,0.00,Wunderground v.1.15,2013-11-06 20:50:00,
2013-11-06 13:55:00,45.7,15.2,30.19,SW,232,22.0,28.0,29,0.00,,,0.00,Wunderground v.1.15,2013-11-06 20:55:00,
2013-11-06 14:00:00,45.3,16.4,30.19,SW,226,27.0,27.0,31,0.00,,,0.00,Wunderground v.1.15,2013-11-06 21:00:00,
2013-11-06 14:10:00,45.4,16.5,30.17,SW,223,31.0,33.0,31,0.00,,,0.00,Wunderground v.1.15,2013-11-06 21:10:00,
2013-11-06 14:20:00,45.3,14.1,30.19,SW,226,35.0,37.0,28,0.00,,,0.00,Wunderground v.1.15,2013-11-06 21:20:00,
2013-11-06 14:25:00,45.6,13.5,30.21,South,188,32.0,37.0,27,0.00,,,0.00,Wunderground v.1.15,2013-11-06 21:25:00,
2013-11-06 14:35:00,45.5,13.4,30.19,SW,232,24.0,26.0,27,0.00,,,0.00,Wunderground v.1.15,2013-11-06 21:35:00,
2013-11-06 14:40:00,45.1,14.7,30.20,West,264,33.0,34.0,29,0.00,,,0.00,Wunderground v.1.15,2013-11-06 21:40:00,
2013-11-06 14:50:00,45.0,13.8,30.21,WSW,242,31.0,31.0,28,0.00,,,0.00,Wunderground v.1.15,2013-11-06 21:50:00,
2013-11-06 14:55:00,45.1,14.7,30.20,SSW,208,26.0,31.0,29,0.00,,,0.00,Wunderground v.1.15,2013-11-06 21:55:00,
2013-11-06 15:00:00,45.7,16.7,30.21,SW,228,21.0,22.0,31,0.00,,,0.00,Wunderground v.1.15,2013-11-06 22:00:00,
2013-11-06 15:10:00,45.1,16.2,30.20,SW,224,26.0,38.0,31,0.00,,,0.00,Wunderground v.1.15,2013-11-06 22:10:00,
2013-11-06 15:20:00,45.0,16.1,30.20,SW,222,25.0,30.0,31,0.00,,,0.00,Wunderground v.1.15,2013-11-06 22:20:00,
2013-11-06 15:25:00,44.9,16.0,30.20,SSW,213,23.0,30.0,31,0.00,,,0.00,Wunderground v.1.15,2013-11-06 22:25:00,
2013-11-06 15:30:00,45.2,15.6,30.20,SW,215,23.0,23.0,30,0.00,,,0.00,Wunderground v.1.15,2013-11-06 22:30:00,
2013-11-06 15:40:00,45.7,16.0,30.21,WSW,239,16.0,16.0,30,0.00,,,0.00,Wunderground v.1.15,2013-11-06 22:40:00,
2013-11-06 15:50:00,45.3,15.6,30.20,SW,233,18.0,18.0,30,0.00,,,0.00,Wunderground v.1.15,2013-11-06 22:50:00,
2013-11-06 15:55:00,45.3,15.6,30.20,South,191,19.0,19.0,30,0.00,,,0.00,Wunderground v.1.15,2013-11-06 22:55:00,
2013-11-06 16:00:00,46.0,15.5,30.21,WSW,242,13.0,22.0,29,0.00,,,0.00,Wunderground v.1.15,2013-11-06 23:00:00,
2013-11-06 16:10:00,45.9,16.2,30.22,WSW,239,13.0,13.0,30,0.00,,,0.00,Wunderground v.1.15,2013-11-06 23:10:00,
2013-11-06 16:15:00,45.6,15.9,30.22,South,181,8.0,13.0,30,0.00,,,0.00,Wunderground v.1.15,2013-11-06 23:15:00,
2013-11-06 16:25:00,45.2,15.6,30.22,South,173,4.0,6.0,30,0.00,,,0.00,Wunderground v.1.15,2013-11-06 23:25:00,
2013-11-06 16:30:00,44.8,16.0,30.22,SSE,162,3.0,3.0,31,0.00,,,0.00,Wunderground v.1.15,2013-11-06 23:30:00,
2013-11-06 16:35:00,44.0,15.3,30.22,ENE,75,2.0,8.0,31,0.00,,,0.00,Wunderground v.1.15,2013-11-06 23:35:00,
2013-11-06 16:40:00,42.8,15.6,30.22,ENE,69,5.0,8.0,33,0.00,,,0.00,Wunderground v.1.15,2013-11-06 23:40:00,
2013-11-06 16:50:00,42.1,15.7,30.23,ESE,115,4.0,4.0,34,0.00,,,0.00,Wunderground v.1.15,2013-11-06 23:50:00,
2013-11-06 17:00:00,42.1,15.7,30.23,SE,136,1.0,3.0,34,0.00,,,0.00,Wunderground v.1.15,2013-11-07 00:00:00,
2013-11-06 17:10:00,41.2,16.2,30.23,SE,142,4.0,5.0,36,0.00,,,0.00,Wunderground v.1.15,2013-11-07 00:10:00,
2013-11-06 17:20:00,41.0,16.7,30.24,West,267,4.0,4.0,37,0.00,,,0.00,Wunderground v.1.15,2013-11-07 00:20:00,
2013-11-06 17:25:00,41.1,16.1,30.24,SSW,205,4.0,4.0,36,0.00,,,0.00,Wunderground v.1.15,2013-11-07 00:25:00,
2013-11-06 17:35:00,42.5,16.1,30.23,SSW,204,7.0,21.0,34,0.00,,,0.00,Wunderground v.1.15,2013-11-07 00:35:00,
2013-11-06 17:40:00,42.9,15.7,30.24,ESE,120,11.0,11.0,33,0.00,,,0.00,Wunderground v.1.15,2013-11-07 00:40:00,
2013-11-06 17:50:00,43.5,15.5,30.23,South,187,14.0,24.0,32,0.00,,,0.00,Wunderground v.1.15,2013-11-07 00:50:00,
2013-11-06 17:55:00,43.6,15.6,30.24,WSW,253,16.0,36.0,32,0.00,,,0.00,Wunderground v.1.15,2013-11-07 00:55:00,
2013-11-06 18:00:00,43.8,15.8,30.24,SW,214,15.0,15.0,32,0.00,,,0.00,Wunderground v.1.15,2013-11-07 01:00:00,
2013-11-06 18:10:00,43.8,15.8,30.25,SSW,205,13.0,13.0,32,0.00,,,0.00,Wunderground v.1.15,2013-11-07 01:10:00,
2013-11-06 18:16:00,43.5,16.3,30.25,SSW,201,11.0,13.0,33,0.00,,,0.00,Wunderground v.1.15,2013-11-07 01:16:00,
2013-11-06 18:25:00,42.8,15.6,30.25,SSW,212,7.0,10.0,33,0.00,,,0.00,Wunderground v.1.15,2013-11-07 01:25:00,
2013-11-06 18:30:00,42.3,15.9,30.25,SSE,161,4.0,4.0,34,0.00,,,0.00,Wunderground v.1.15,2013-11-07 01:30:00,
2013-11-06 18:35:00,42.2,15.8,30.25,SE,146,3.0,7.0,34,0.00,,,0.00,Wunderground v.1.15,2013-11-07 01:35:00,
2013-11-06 18:40:00,42.8,14.9,30.25,SE,127,4.0,4.0,32,0.00,,,0.00,Wunderground v.1.15,2013-11-07 01:40:00,
2013-11-06 18:50:00,43.2,14.6,30.26,SE,136,3.0,3.0,31,0.00,,,0.00,Wunderground v.1.15,2013-11-07 01:50:00,
2013-11-06 18:55:00,43.1,14.5,30.26,SE,136,2.0,3.0,31,0.00,,,0.00,Wunderground v.1.15,2013-11-07 01:55:00,
2013-11-06 19:00:00,42.5,15.4,30.25,East,86,3.0,5.0,33,0.00,,,0.00,Wunderground v.1.15,2013-11-07 02:00:00,
2013-11-06 19:10:00,41.6,15.3,30.26,NE,49,4.0,4.0,34,0.00,,,0.00,Wunderground v.1.15,2013-11-07 02:10:00,
2013-11-06 19:20:00,42.3,15.2,30.26,ENE,68,7.0,8.0,33,0.00,,,0.00,Wunderground v.1.15,2013-11-07 02:20:00,
2013-11-06 19:25:00,42.1,15.7,30.25,NE,44,10.0,11.0,34,0.00,,,0.00,Wunderground v.1.15,2013-11-07 02:25:00,
2013-11-06 19:30:00,41.4,15.8,30.26,East,89,10.0,10.0,35,0.00,,,0.00,Wunderground v.1.15,2013-11-07 02:30:00,
2013-11-06 19:35:00,41.0,15.4,30.26,ESE,118,5.0,10.0,35,0.00,,,0.00,Wunderground v.1.15,2013-11-07 02:35:00,
2013-11-06 19:41:00,40.8,15.9,30.26,SE,124,3.0,4.0,36,0.00,,,0.00,Wunderground v.1.15,2013-11-07 02:41:00,
2013-11-06 19:50:00,40.0,16.4,30.26,ENE,65,4.0,7.0,38,0.00,,,0.00,Wunderground v.1.15,2013-11-07 02:50:00,
2013-11-06 19:55:00,39.5,16.0,30.27,ENE,78,6.0,7.0,38,0.00,,,0.00,Wunderground v.1.15,2013-11-07 02:55:00,
2013-11-06 20:00:00,39.7,16.1,30.27,SSE,152,6.0,6.0,38,0.00,,,0.00,Wunderground v.1.15,2013-11-07 03:00:00,
2013-11-06 20:10:00,40.0,16.4,30.27,NE,35,5.0,6.0,38,0.00,,,0.00,Wunderground v.1.15,2013-11-07 03:10:00,
2013-11-06 20:20:00,39.2,16.3,30.27,SSE,157,4.0,4.0,39,0.00,,,0.00,Wunderground v.1.15,2013-11-07 03:20:00,
2013-11-06 20:25:00,39.3,16.4,30.27,SSE,148,3.0,4.0,39,0.00,,,0.00,Wunderground v.1.15,2013-11-07 03:25:00,
2013-11-06 20:30:00,39.1,16.2,30.27,SSE,148,1.0,1.0,39,0.00,,,0.00,Wunderground v.1.15,2013-11-07 03:30:00,
2013-11-06 20:35:00,39.3,16.4,30.27,NE,46,1.0,6.0,39,0.00,,,0.00,Wunderground v.1.15,2013-11-07 03:35:00,
2013-11-06 20:45:00,39.2,16.3,30.27,NE,51,5.0,5.0,39,0.00,,,0.00,Wunderground v.1.15,2013-11-07 03:45:00,
2013-11-06 20:50:00,39.4,16.5,30.27,NNE,29,3.0,6.0,39,0.00,,,0.00,Wunderground v.1.15,2013-11-07 03:50:00,
2013-11-06 21:05:00,40.7,16.4,30.27,NE,40,5.0,8.0,37,0.00,,,0.00,Wunderground v.1.15,2013-11-07 04:05:00,
2013-11-06 21:20:00,40.3,16.1,30.27,East,84,4.0,4.0,37,0.00,,,0.00,Wunderground v.1.15,2013-11-07 04:20:00,
2013-11-06 21:25:00,39.5,16.6,30.28,South,185,3.0,4.0,39,0.00,,,0.00,Wunderground v.1.15,2013-11-07 04:25:00,
2013-11-06 21:30:00,39.2,16.3,30.28,South,186,2.0,4.0,39,0.00,,,0.00,Wunderground v.1.15,2013-11-07 04:30:00,
2013-11-06 21:45:00,41.1,16.1,30.28,SSE,148,4.0,4.0,36,0.00,,,0.00,Wunderground v.1.15,2013-11-07 04:45:00,
2013-11-06 21:55:00,39.9,15.7,30.28,SSW,195,5.0,5.0,37,0.00,,,0.00,Wunderground v.1.15,2013-11-07 04:55:00,
2013-11-06 22:01:00,40.8,15.9,30.28,South,173,3.0,3.0,36,0.00,,,0.00,Wunderground v.1.15,2013-11-07 05:01:00,
2013-11-06 22:05:00,41.6,15.9,30.28,SW,228,4.0,10.0,35,0.00,,,0.00,Wunderground v.1.15,2013-11-07 05:05:00,
2013-11-06 22:10:00,40.5,15.6,30.28,South,179,6.0,8.0,36,0.00,,,0.00,Wunderground v.1.15,2013-11-07 05:10:00,
2013-11-06 22:20:00,42.7,15.6,30.27,SW,224,5.0,8.0,33,0.00,,,0.00,Wunderground v.1.15,2013-11-07 05:20:00,
2013-11-06 22:30:00,42.5,16.1,30.28,ENE,72,4.0,4.0,34,0.00,,,0.00,Wunderground v.1.15,2013-11-07 05:30:00,
2013-11-06 22:35:00,42.2,16.5,30.28,NE,39,4.0,4.0,35,0.00,,,0.00,Wunderground v.1.15,2013-11-07 05:35:00,
2013-11-06 22:40:00,42.6,16.2,30.27,East,84,5.0,10.0,34,0.00,,,0.00,Wunderground v.1.15,2013-11-07 05:40:00,
2013-11-06 22:50:00,43.4,16.2,30.28,SSW,209,6.0,11.0,33,0.00,,,0.00,Wunderground v.1.15,2013-11-07 05:50:00,
2013-11-06 22:55:00,43.3,16.1,30.28,South,187,5.0,11.0,33,0.00,,,0.00,Wunderground v.1.15,2013-11-07 05:55:00,
2013-11-06 23:00:00,43.6,16.3,30.28,SSE,167,8.0,8.0,33,0.00,,,0.00,Wunderground v.1.15,2013-11-07 06:00:00,
2013-11-06 23:20:00,42.9,16.4,30.29,SSW,201,5.0,5.0,34,0.00,,,0.00,Wunderground v.1.15,2013-11-07 06:20:00,
2013-11-06 23:30:00,44.0,16.7,30.29,South,184,17.0,17.0,33,0.00,,,0.00,Wunderground v.1.15,2013-11-07 06:30:00,
2013-11-06 23:41:00,42.9,16.4,30.30,SSE,152,4.0,4.0,34,0.00,,,0.00,Wunderground v.1.15,2013-11-07 06:41:00,
2013-11-06 23:50:00,43.0,16.5,30.30,South,177,2.0,3.0,34,0.00,,,0.00,Wunderground v.1.15,2013-11-07 06:50:00,